Time;durP1;ratioP1;P1;durP2;ratioP2;P2;SDS_P1;SDS_P2;PMS_P1;PMS_P2;Temp;Humidity;BMP_temperature;BMP_pressure;BME280_temperature;BME280_humidity;BME280_pressure;Samples;Min_cycle;Max_cycle;Signal;HPM_P1;HPM_P2
2022/03/17 00:01:07;;;;;;;25.23;15.23;;;;;;;9.48;86.75;101897.47;5093192;28;20059;-78
2022/03/17 00:03:33;;;;;;;31.02;15.23;;;;;;;9.45;87.30;101897.69;5075591;28;20164;-78
2022/03/17 00:05:58;;;;;;;25.35;15.57;;;;;;;9.44;87.97;101895.16;5094581;28;20455;-78
2022/03/17 00:08:24;;;;;;;24.65;16.55;;;;;;;9.43;88.00;101899.59;5093238;28;20102;-79
2022/03/17 00:10:49;;;;;;;29.67;16.35;;;;;;;9.44;88.35;101901.31;5093173;28;20070;-78
2022/03/17 00:13:15;;;;;;;25.83;16.35;;;;;;;9.45;88.52;101907.44;5093262;28;20371;-78
2022/03/17 00:15:40;;;;;;;24.27;16.98;;;;;;;9.46;88.79;101906.50;5074962;28;20032;-79
2022/03/17 00:18:06;;;;;;;27.88;16.55;;;;;;;9.44;88.94;101909.28;5074839;28;20032;-79
2022/03/17 00:20:32;;;;;;;30.35;17.30;;;;;;;9.44;89.28;101917.25;5093399;28;20062;-79
2022/03/17 00:22:57;;;;;;;25.95;17.27;;;;;;;9.43;89.67;101912.03;5075598;28;20056;-78
2022/03/17 00:25:22;;;;;;;22.67;17.15;;;;;;;9.40;90.08;101918.41;5075325;28;20036;-78
2022/03/17 00:27:48;;;;;;;25.13;17.90;;;;;;;9.37;90.56;101917.78;5093436;28;20441;-77
2022/03/17 00:30:13;;;;;;;27.33;18.13;;;;;;;9.32;90.79;101910.13;5092931;28;20032;-78
2022/03/17 00:32:39;;;;;;;25.10;17.27;;;;;;;9.30;91.35;101904.03;5092866;28;20490;-79
2022/03/17 00:37:52;;;;;;;27.85;17.33;;;;;;;9.29;91.88;101905.03;5097198;28;20109;-78
2022/03/17 00:40:17;;;;;;;29.73;19.73;;;;;;;9.31;92.33;101914.56;5097129;28;20426;-78
2022/03/17 00:42:43;;;;;;;27.83;19.55;;;;;;;9.32;92.70;101923.41;5097121;28;20058;-78
2022/03/17 00:45:12;;;;;;;33.90;20.40;;;;;;;9.33;93.15;101920.63;5096912;28;20365;-78
2022/03/17 00:47:38;;;;;;;33.28;21.13;;;;;;;9.34;93.89;101919.69;5096912;28;20036;-78
2022/03/17 00:50:06;;;;;;;35.85;22.05;;;;;;;9.39;94.42;101924.69;5097068;28;20032;-78
2022/03/17 00:52:32;;;;;;;35.60;23.67;;;;;;;9.38;95.04;101920.31;5096765;28;20028;-78
2022/03/17 00:54:57;;;;;;;38.92;24.25;;;;;;;9.34;96.11;101927.66;5096686;28;20369;-79
2022/03/17 00:57:23;;;;;;;44.28;25.77;;;;;;;9.30;97.12;101928.81;5096308;28;20064;-78
2022/03/17 00:59:49;;;;;;;45.05;26.38;;;;;;;9.27;98.14;101928.16;5096780;28;20028;-78
2022/03/17 01:02:15;;;;;;;42.70;28.05;;;;;;;9.22;99.17;101925.81;5096879;28;20024;-78
2022/03/17 01:04:40;;;;;;;46.75;27.23;;;;;;;9.20;99.48;101921.59;5079282;28;20028;-78
2022/03/17 01:07:06;;;;;;;42.15;27.52;;;;;;;9.16;99.93;101928.88;5096347;28;20035;-78
2022/03/17 01:09:33;;;;;;;48.33;30.38;;;;;;;9.12;100.00;101925.59;5098070;28;20028;-77
2022/03/17 01:11:59;;;;;;;54.22;32.28;;;;;;;9.09;100.00;101931.13;5100228;28;20031;-78
2022/03/17 01:14:25;;;;;;;63.58;33.30;;;;;;;9.07;100.00;101934.81;5099362;28;20032;-78
2022/03/17 01:16:50;;;;;;;59.50;32.05;;;;;;;9.03;100.00;101933.31;5096736;28;20051;-78
2022/03/17 01:19:19;;;;;;;56.63;32.40;;;;;;;9.05;100.00;101934.94;5095939;28;20115;-78
2022/03/17 01:21:49;;;;;;;60.00;33.30;;;;;;;9.02;100.00;101937.78;5096526;28;20460;-78
2022/03/17 01:24:16;;;;;;;59.05;32.53;;;;;;;9.02;100.00;101940.44;5096592;28;20474;-78
2022/03/17 01:26:41;;;;;;;58.50;32.35;;;;;;;8.98;100.00;101936.28;5096711;28;20024;-78
2022/03/17 01:29:07;;;;;;;60.13;33.38;;;;;;;8.95;100.00;101947.94;5096145;28;20475;-78
2022/03/17 01:31:32;;;;;;;63.08;32.97;;;;;;;8.93;100.00;101952.50;5078055;28;20036;-78
2022/03/17 01:33:59;;;;;;;66.38;33.13;;;;;;;8.91;100.00;101972.13;5095938;28;20043;-78
2022/03/17 01:36:25;;;;;;;58.63;33.25;;;;;;;8.89;100.00;101969.59;5095716;28;20503;-78
2022/03/17 01:38:51;;;;;;;41.45;25.17;;;;;;;8.87;100.00;101974.16;5095580;28;20064;-78
2022/03/17 01:41:17;;;;;;;39.20;23.60;;;;;;;8.82;100.00;101979.75;5095824;28;20065;-78
2022/03/17 01:43:43;;;;;;;28.33;17.98;;;;;;;8.74;100.00;101983.88;5077679;28;20040;-78
2022/03/17 01:46:11;;;;;;;25.27;16.45;;;;;;;8.62;100.00;101998.75;5077265;28;20032;-78
2022/03/17 01:48:37;;;;;;;27.95;17.38;;;;;;;8.52;100.00;101998.50;5095645;28;20086;-78
2022/03/17 01:51:02;;;;;;;24.35;13.90;;;;;;;8.28;100.00;102019.41;5077382;28;20051;-78
2022/03/17 01:53:27;;;;;;;20.00;11.18;;;;;;;7.97;100.00;102029.25;5095879;28;20063;-78
2022/03/17 01:55:53;;;;;;;25.23;10.13;;;;;;;7.67;100.00;102040.72;5077268;28;20028;-77
2022/03/17 01:58:19;;;;;;;21.58;9.77;;;;;;;7.39;100.00;102038.88;5094599;28;20048;-78
2022/03/17 02:00:48;;;;;;;26.45;10.65;;;;;;;7.18;100.00;102041.81;5094761;28;20059;-77
2022/03/17 02:03:13;;;;;;;18.42;8.80;;;;;;;7.02;100.00;102048.91;5094279;28;20025;-77
2022/03/17 02:05:39;;;;;;;22.77;8.95;;;;;;;6.85;100.00;102068.38;5094315;28;20089;-77
2022/03/17 02:08:09;;;;;;;20.70;9.32;;;;;;;6.77;100.00;102065.31;5094403;28;20059;-78
2022/03/17 02:13:08;;;;;;;21.02;8.32;;;;;;;6.68;100.00;102075.44;5094211;28;20040;-77
2022/03/17 02:13:20;;;;;;;17.15;7.57;;;;;;;6.58;100.00;102066.28;5093822;28;20158;-78
2022/03/17 02:15:53;;;;;;;20.52;8.32;;;;;;;6.49;100.00;102072.06;5094149;28;20043;-77
2022/03/17 02:18:20;;;;;;;17.52;8.80;;;;;;;6.46;100.00;102073.09;5094250;28;20070;-77
2022/03/17 02:20:46;;;;;;;17.00;8.45;;;;;;;6.42;100.00;102068.91;5094098;28;20031;-78
2022/03/17 02:26:02;;;;;;;19.55;9.27;;;;;;;6.37;100.00;102091.25;5078959;28;20463;-78
2022/03/17 02:28:30;;;;;;;17.48;8.82;;;;;;;6.34;100.00;102087.84;5093926;28;20480;-77
2022/03/17 02:30:56;;;;;;;19.70;10.02;;;;;;;6.32;100.00;102099.41;5093890;28;20069;-77
2022/03/17 02:33:22;;;;;;;19.27;10.88;;;;;;;6.32;100.00;102104.72;5093796;28;20083;-77
2022/03/17 02:35:49;;;;;;;30.65;12.50;;;;;;;6.29;100.00;102105.72;5094186;28;20060;-77
2022/03/17 02:38:17;;;;;;;33.00;13.48;;;;;;;6.30;100.00;102117.13;5093664;28;20098;-76
2022/03/17 02:40:46;;;;;;;29.70;13.13;;;;;;;6.31;100.00;102124.13;5093703;28;20048;-77
2022/03/17 02:43:14;;;;;;;33.80;14.43;;;;;;;6.29;100.00;102128.66;5093702;28;20085;-76
2022/03/17 02:45:41;;;;;;;32.15;14.25;;;;;;;6.26;100.00;102129.66;5093728;28;20104;-77
2022/03/17 02:48:08;;;;;;;27.27;13.50;;;;;;;6.23;100.00;102124.53;5075188;28;20445;-77
2022/03/17 02:50:34;;;;;;;30.38;12.93;;;;;;;6.22;100.00;102128.09;5093832;28;20167;-77
2022/03/17 02:53:05;;;;;;;29.58;13.63;;;;;;;6.19;100.00;102138.84;5075741;28;20115;-76
2022/03/17 02:55:36;;;;;;;38.15;13.60;;;;;;;6.17;100.00;102135.44;5076500;28;20032;-79
2022/03/17 02:58:03;;;;;;;31.02;13.25;;;;;;;6.15;100.00;102140.81;5054299;28;1093115;-77
2022/03/17 03:00:28;;;;;;;29.15;11.90;;;;;;;6.15;100.00;102155.78;5094691;28;20040;-77
2022/03/17 03:02:54;;;;;;;26.10;11.00;;;;;;;6.14;100.00;102154.09;5094490;28;20162;-77
2022/03/17 03:05:19;;;;;;;22.70;10.57;;;;;;;6.12;100.00;102170.03;5094156;28;20032;-77
2022/03/17 03:07:44;;;;;;;21.88;10.02;;;;;;;6.11;100.00;102176.25;5075954;28;20463;-77
2022/03/17 03:10:10;;;;;;;22.80;8.55;;;;;;;6.12;100.00;102185.88;5093955;28;20058;-77
2022/03/17 03:12:35;;;;;;;29.52;9.40;;;;;;;6.07;100.00;102187.03;5094307;28;20479;-78
2022/03/17 03:15:01;;;;;;;30.23;7.45;;;;;;;6.07;100.00;102202.91;5094462;28;20027;-77
2022/03/17 03:17:27;;;;;;;31.10;6.88;;;;;;;6.06;100.00;102209.97;5075728;28;20039;-77
2022/03/17 03:19:53;;;;;;;32.35;6.28;;;;;;;6.07;100.00;102213.47;5094164;28;20024;-79
2022/03/17 03:22:18;;;;;;;27.33;5.43;;;;;;;6.07;100.00;102227.53;5093801;28;20043;-78
2022/03/17 03:24:45;;;;;;;22.88;5.07;;;;;;;6.03;100.00;102236.56;5093814;28;20452;-78
2022/03/17 03:27:11;;;;;;;30.05;5.50;;;;;;;6.01;100.00;102241.03;5075682;28;20383;-77
2022/03/17 03:29:36;;;;;;;24.63;4.18;;;;;;;5.97;100.00;102255.31;5075487;28;20028;-79
2022/03/17 03:32:06;;;;;;;27.83;4.72;;;;;;;5.92;100.00;102252.88;5093425;28;20028;-79
2022/03/17 03:34:32;;;;;;;22.20;3.47;;;;;;;5.89;100.00;102260.09;5093228;28;20047;-78
2022/03/17 03:39:43;;;;;;;21.58;3.80;;;;;;;5.90;100.00;102277.69;5093614;28;20116;-77
2022/03/17 03:42:09;;;;;;;22.83;3.40;;;;;;;5.89;99.41;102292.66;5093465;28;20479;-78
2022/03/17 03:44:35;;;;;;;19.48;3.92;;;;;;;5.88;98.84;102283.03;5093118;28;20056;-78
2022/03/17 03:47:01;;;;;;;21.65;3.38;;;;;;;5.87;98.82;102294.53;5093444;28;20035;-78
2022/03/17 03:49:26;;;;;;;18.13;4.72;;;;;;;5.86;98.91;102298.09;5074956;28;20453;-78
2022/03/17 03:51:52;;;;;;;29.02;3.15;;;;;;;5.87;99.15;102296.28;5093431;28;20032;-78
2022/03/17 03:54:17;;;;;;;19.42;4.20;;;;;;;5.88;98.73;102309.44;5093900;28;20541;-78
2022/03/17 03:56:46;;;;;;;18.67;3.05;;;;;;;5.90;98.32;102310.22;5093364;28;20031;-78
2022/03/17 03:59:21;;;;;;;18.02;2.70;;;;;;;5.90;98.42;102312.88;5093981;28;20048;-78
2022/03/17 04:01:48;;;;;;;17.65;3.22;;;;;;;5.89;96.57;102320.88;5093248;28;20086;-76
2022/03/17 04:04:18;;;;;;;20.20;2.78;;;;;;;5.90;96.26;102331.34;5092728;28;20547;-77
2022/03/17 04:06:46;;;;;;;16.75;2.90;;;;;;;5.89;95.71;102334.91;5074905;28;20539;-76
2022/03/17 04:09:15;;;;;;;18.83;2.67;;;;;;;5.89;95.25;102347.28;5092996;28;20051;-77
2022/03/17 04:11:41;;;;;;;17.67;2.63;;;;;;;5.85;94.91;102359.75;5092834;28;20059;-77
2022/03/17 04:14:07;;;;;;;12.20;2.40;;;;;;;5.89;94.20;102357.84;5093578;28;20380;-76
2022/03/17 04:16:33;;;;;;;16.23;2.70;;;;;;;5.89;94.59;102366.63;5092998;28;20123;-77
2022/03/17 04:18:58;;;;;;;15.93;3.00;;;;;;;5.88;94.03;102377.25;5092875;28;20032;-77
2022/03/17 04:21:24;;;;;;;13.82;2.63;;;;;;;5.89;93.53;102381.63;5074690;28;20098;-77
2022/03/17 04:23:50;;;;;;;12.65;1.83;;;;;;;5.89;94.26;102392.19;5092732;28;20057;-77
2022/03/17 04:26:15;;;;;;;14.25;3.83;;;;;;;5.87;94.16;102396.66;5093022;28;20063;-77
2022/03/17 04:28:41;;;;;;;19.33;2.90;;;;;;;5.85;93.87;102409.94;5093197;28;20035;-76
2022/03/17 04:31:06;;;;;;;13.60;2.35;;;;;;;5.85;93.82;102402.03;5093306;28;20059;-77
2022/03/17 04:33:32;;;;;;;22.15;2.65;;;;;;;5.81;94.18;102421.59;5092888;28;20047;-77
2022/03/17 04:35:57;;;;;;;22.55;2.42;;;;;;;5.81;93.43;102427.75;5092844;28;20208;-76
2022/03/17 04:38:22;;;;;;;12.57;2.13;;;;;;;5.82;93.22;102428.59;5092538;28;20032;-77
2022/03/17 04:40:49;;;;;;;16.67;2.72;;;;;;;5.81;93.19;102445.38;5092997;28;20101;-77
2022/03/17 04:43:17;;;;;;;14.82;2.03;;;;;;;5.79;93.48;102447.22;5093539;28;20411;-77
2022/03/17 04:45:44;;;;;;;22.33;3.55;;;;;;;5.77;93.57;102460.50;5093031;28;20036;-76
2022/03/17 04:48:10;;;;;;;18.52;2.75;;;;;;;5.76;93.66;102471.13;5092709;28;20038;-76
2022/03/17 04:50:36;;;;;;;14.77;2.10;;;;;;;5.78;93.45;102477.22;5092602;28;20214;-77
2022/03/17 04:55:45;;;;;;;16.73;3.30;;;;;;;5.76;92.72;102489.63;5092714;28;20043;-78
2022/03/17 04:58:11;;;;;;;14.55;2.38;;;;;;;5.75;92.23;102498.50;5092356;28;20052;-78
2022/03/17 05:00:36;;;;;;;16.73;2.33;;;;;;;5.75;91.66;102504.63;5092437;28;20388;-78
2022/03/17 05:03:01;;;;;;;11.27;1.90;;;;;;;5.78;91.14;102525.63;5074223;28;20028;-78
2022/03/17 05:05:27;;;;;;;15.40;2.28;;;;;;;5.79;90.58;102523.81;5073751;28;20028;-78
2022/03/17 05:07:57;;;;;;;17.58;2.13;;;;;;;5.78;90.38;102520.34;5092296;28;20047;-77
2022/03/17 05:10:22;;;;;;;14.05;2.78;;;;;;;5.79;90.14;102543.19;5092078;28;20032;-77
2022/03/17 05:12:48;;;;;;;13.40;2.97;;;;;;;5.77;89.95;102549.47;5074584;28;20059;-77
2022/03/17 05:15:13;;;;;;;15.35;2.20;;;;;;;5.74;90.55;102555.72;5092817;28;20032;-77
2022/03/17 05:17:39;;;;;;;17.70;2.78;;;;;;;5.74;91.68;102562.78;5093491;28;20029;-77
2022/03/17 05:20:07;;;;;;;14.30;2.10;;;;;;;5.71;92.06;102568.22;5095465;28;20028;-78
2022/03/17 05:22:33;;;;;;;18.88;3.53;;;;;;;5.70;92.39;102579.69;5098755;28;20157;-79
2022/03/17 05:24:58;;;;;;;13.63;2.10;;;;;;;5.65;92.25;102580.72;5099474;28;20500;-78
2022/03/17 05:27:25;;;;;;;16.13;3.05;;;;;;;5.69;91.51;102596.44;5099387;28;20040;-79
2022/03/17 05:29:50;;;;;;;18.13;2.22;;;;;;;5.68;90.88;102579.75;5097606;28;20036;-78
2022/03/17 05:32:15;;;;;;;18.05;3.05;;;;;;;5.70;91.11;102593.75;5098850;28;20032;-77
2022/03/17 05:34:41;;;;;;;16.17;2.70;;;;;;;5.71;91.30;102598.09;5081255;28;20032;-77
2022/03/17 05:37:07;;;;;;;19.38;2.35;;;;;;;5.72;91.62;102598.97;5099070;28;20059;-77
2022/03/17 05:39:32;;;;;;;29.70;4.45;;;;;;;5.72;91.76;102606.88;5095661;28;20055;-80
2022/03/17 05:41:57;;;;;;;20.05;2.83;;;;;;;5.70;91.84;102617.50;5096112;28;20028;-77
2022/03/17 05:44:23;;;;;;;18.50;3.08;;;;;;;5.71;91.70;102618.41;5096182;28;20481;-77
2022/03/17 05:46:48;;;;;;;24.10;3.20;;;;;;;5.71;92.06;102626.31;5095641;28;20063;-77
2022/03/17 05:49:14;;;;;;;20.58;3.13;;;;;;;5.72;91.56;102638.56;5096006;28;20039;-78
2022/03/17 05:51:40;;;;;;;24.30;2.60;;;;;;;5.74;91.43;102631.47;5095872;28;20395;-76
2022/03/17 05:54:06;;;;;;;23.38;2.88;;;;;;;5.74;91.08;102639.41;5095585;28;20501;-77
2022/03/17 05:56:31;;;;;;;28.45;3.17;;;;;;;5.76;90.59;102645.47;5095254;28;20059;-77
2022/03/17 05:58:56;;;;;;;18.40;2.67;;;;;;;5.77;90.58;102652.47;5095611;28;20091;-78
2022/03/17 06:01:22;;;;;;;22.23;3.00;;;;;;;5.77;90.69;102657.75;5095877;28;20028;-77
2022/03/17 06:03:47;;;;;;;19.42;3.30;;;;;;;5.79;90.29;102659.41;5095808;28;20034;-77
2022/03/17 06:06:13;;;;;;;16.83;2.90;;;;;;;5.78;89.93;102670.91;5095514;28;20063;-77
2022/03/17 06:08:38;;;;;;;17.35;2.55;;;;;;;5.78;89.47;102678.81;5095893;28;20060;-78
2022/03/17 06:11:06;;;;;;;11.38;2.20;;;;;;;5.80;89.74;102679.59;5095159;28;20028;-78
2022/03/17 06:13:32;;;;;;;20.08;2.20;;;;;;;5.80;89.61;102695.47;5095777;28;20031;-78
2022/03/17 06:15:57;;;;;;;18.95;2.42;;;;;;;5.80;89.82;102689.31;5095444;28;20362;-77
2022/03/17 06:18:23;;;;;;;18.77;3.25;;;;;;;5.82;89.81;102703.31;5095365;28;20032;-77
2022/03/17 06:20:48;;;;;;;13.57;2.70;;;;;;;5.83;89.84;102705.91;5095098;28;20032;-78
2022/03/17 06:23:13;;;;;;;15.15;3.35;;;;;;;5.80;89.86;102719.22;5095628;28;20040;-77
2022/03/17 06:25:39;;;;;;;19.35;2.97;;;;;;;5.78;89.63;102725.53;5095238;28;20380;-78
2022/03/17 06:28:06;;;;;;;16.75;2.58;;;;;;;5.77;89.75;102732.56;5094803;28;20454;-78
2022/03/17 06:30:32;;;;;;;16.70;2.33;;;;;;;5.72;89.85;102739.81;5094681;28;20067;-77
2022/03/17 06:32:57;;;;;;;16.30;2.88;;;;;;;5.72;89.84;102736.31;5076229;28;20060;-78
2022/03/17 06:35:25;;;;;;;18.65;2.45;;;;;;;5.74;89.93;102745.06;5094673;28;20122;-78
2022/03/17 06:37:55;;;;;;;21.23;2.50;;;;;;;5.73;89.65;102743.31;5077138;28;20033;-78
2022/03/17 06:40:22;;;;;;;13.27;2.08;;;;;;;5.76;89.67;102749.34;5095298;28;20031;-78
2022/03/17 06:42:49;;;;;;;19.92;2.70;;;;;;;5.76;89.61;102752.00;5095069;28;20491;-78
2022/03/17 06:45:15;;;;;;;19.83;3.22;;;;;;;5.79;89.31;102751.88;5095398;28;20039;-78
2022/03/17 06:47:41;;;;;;;12.05;2.15;;;;;;;5.77;89.26;102766.91;5094642;28;20036;-78
2022/03/17 06:50:08;;;;;;;15.75;2.67;;;;;;;5.78;88.88;102776.56;5094612;28;20028;-78
2022/03/17 06:52:34;;;;;;;17.48;2.50;;;;;;;5.75;89.04;102776.69;5094812;28;20044;-78
2022/03/17 06:54:59;;;;;;;21.58;2.70;;;;;;;5.75;88.60;102786.41;5094521;28;20119;-78
2022/03/17 06:57:25;;;;;;;22.60;2.50;;;;;;;5.74;87.11;102790.81;5094077;28;20384;-77
2022/03/17 06:59:51;;;;;;;16.08;2.15;;;;;;;5.76;86.69;102790.75;5094183;28;20056;-78
2022/03/17 07:02:17;;;;;;;12.43;2.35;;;;;;;5.78;86.71;102804.78;5076603;28;20388;-78
2022/03/17 07:04:43;;;;;;;17.95;2.85;;;;;;;5.73;86.74;102804.06;5094270;28;20466;-78
2022/03/17 07:07:09;;;;;;;23.23;2.75;;;;;;;5.71;86.92;102813.84;5094600;28;20338;-78
2022/03/17 07:09:36;;;;;;;16.08;2.35;;;;;;;5.67;86.92;102809.59;5094186;28;20441;-78
2022/03/17 07:12:01;;;;;;;10.82;2.33;;;;;;;5.68;86.03;102819.25;5094222;28;20042;-78
2022/03/17 07:14:27;;;;;;;18.60;2.25;;;;;;;5.69;85.95;102820.94;5094238;28;20135;-78
2022/03/17 07:16:52;;;;;;;18.67;3.25;;;;;;;5.73;85.20;102830.50;5093661;28;20044;-78
2022/03/17 07:19:18;;;;;;;12.60;2.03;;;;;;;5.77;85.19;102832.09;5075996;28;20479;-78
2022/03/17 07:21:43;;;;;;;7.93;1.65;;;;;;;5.81;85.15;102837.19;5076267;28;20032;-77
2022/03/17 07:24:09;;;;;;;10.65;2.53;;;;;;;5.86;85.02;102841.44;5094521;28;20452;-78
2022/03/17 07:26:35;;;;;;;19.73;2.63;;;;;;;5.87;84.97;102844.03;5093737;28;20089;-77
2022/03/17 07:29:02;;;;;;;12.73;2.17;;;;;;;5.87;85.00;102851.97;5075643;28;20033;-78
2022/03/17 07:31:28;;;;;;;14.27;2.05;;;;;;;5.85;84.94;102853.78;5093747;28;20059;-78
2022/03/17 07:33:53;;;;;;;14.63;2.75;;;;;;;5.85;84.50;102853.78;5094442;28;20028;-77
2022/03/17 07:36:20;;;;;;;20.63;2.58;;;;;;;5.85;83.94;102864.34;5093705;28;20448;-78
2022/03/17 07:38:45;;;;;;;13.35;2.80;;;;;;;5.87;83.13;102867.81;5093415;28;20024;-77
2022/03/17 07:41:10;;;;;;;14.60;2.38;;;;;;;5.88;82.58;102869.56;5094163;28;20409;-78
2022/03/17 07:43:36;;;;;;;13.77;2.63;;;;;;;5.85;83.40;102877.56;5092936;28;20036;-78
2022/03/17 07:46:01;;;;;;;9.93;1.73;;;;;;;5.87;82.96;102888.94;5093386;28;20027;-78
2022/03/17 07:48:27;;;;;;;12.23;2.05;;;;;;;5.91;82.23;102887.94;5093294;28;20055;-78
2022/03/17 07:50:52;;;;;;;8.35;1.63;;;;;;;5.94;80.91;102890.44;5075153;28;20029;-78
2022/03/17 07:53:17;;;;;;;7.88;1.60;;;;;;;6.04;79.82;102890.13;5093590;28;20082;-79
2022/03/17 07:55:44;;;;;;;11.13;1.92;;;;;;;6.15;79.50;102906.41;5093337;28;20468;-80
2022/03/17 07:58:12;;;;;;;7.15;1.50;;;;;;;6.28;78.84;102912.09;5093305;28;20130;-77
2022/03/17 08:00:39;;;;;;;11.02;1.60;;;;;;;6.43;78.77;102922.03;5093837;28;20036;-77
2022/03/17 08:03:05;;;;;;;15.88;1.70;;;;;;;6.61;78.41;102922.25;5075449;28;20369;-78
2022/03/17 08:05:31;;;;;;;10.27;1.70;;;;;;;6.71;78.16;102932.38;5094704;28;20077;-79
2022/03/17 08:07:56;;;;;;;8.75;1.73;;;;;;;6.73;77.83;102928.81;5093549;28;20081;-79
2022/03/17 08:10:21;;;;;;;7.82;2.20;;;;;;;6.66;77.58;102942.28;5093307;28;20115;-79
2022/03/17 08:12:48;;;;;;;8.63;1.33;;;;;;;6.83;77.51;102951.31;5093341;28;20471;-79
2022/03/17 08:15:14;;;;;;;5.80;1.70;;;;;;;7.32;75.89;102949.25;5093573;28;20063;-79
2022/03/17 08:17:39;;;;;;;6.88;2.20;;;;;;;7.75;74.22;102963.28;5093928;28;20107;-79
2022/03/17 08:20:05;;;;;;;10.50;1.70;;;;;;;7.93;72.51;102964.22;5093185;28;20089;-79
2022/03/17 08:22:32;;;;;;;7.07;1.58;;;;;;;8.18;72.78;102970.19;5093714;28;20035;-80
2022/03/17 08:24:57;;;;;;;10.73;1.85;;;;;;;8.45;71.42;102963.63;5093377;28;20029;-80
2022/03/17 08:27:22;;;;;;;11.73;2.08;;;;;;;8.40;71.57;102973.53;5095090;28;20093;-80
2022/03/17 08:29:48;;;;;;;8.43;1.70;;;;;;;8.58;69.12;102981.59;5095182;28;20374;-79
2022/03/17 08:32:14;;;;;;;8.15;1.80;;;;;;;8.69;70.08;102989.91;5058919;28;20497;-79
2022/03/17 08:34:39;;;;;;;11.38;1.92;;;;;;;8.83;70.11;102990.09;5093415;28;20119;-79
2022/03/17 08:37:05;;;;;;;10.05;1.95;;;;;;;8.86;69.97;103001.50;5093617;28;20063;-79
2022/03/17 08:39:30;;;;;;;10.85;2.25;;;;;;;9.10;70.13;102999.44;5093399;28;20031;-79
2022/03/17 08:41:56;;;;;;;13.93;2.70;;;;;;;9.80;66.63;103012.69;5077985;28;20085;-79
2022/03/17 08:44:22;;;;;;;7.68;2.00;;;;;;;9.97;67.44;103011.78;5095772;28;20033;-80
2022/03/17 08:49:32;;;;;;;14.70;2.80;;;;;;;9.53;66.00;103029.13;5095070;28;20101;-81
2022/03/17 08:52:01;;;;;;;11.63;2.30;;;;;;;9.18;67.53;103040.63;5095857;28;20060;-79
2022/03/17 08:54:29;;;;;;;11.73;2.60;;;;;;;8.87;70.12;103037.72;5098243;28;20050;-78
2022/03/17 08:57:03;;;;;;;13.27;2.95;;;;;;;9.20;67.73;103037.88;5101438;28;20122;-80
2022/03/17 08:59:30;;;;;;;12.48;2.58;;;;;;;9.43;68.74;103041.16;5102384;28;20048;-80
2022/03/17 09:01:57;;;;;;;10.18;2.22;;;;;;;9.93;64.33;103047.44;5102375;28;20036;-80
2022/03/17 09:04:22;;;;;;;12.15;2.58;;;;;;;10.44;61.89;103058.94;5079634;28;20434;-80
2022/03/17 09:06:48;;;;;;;9.23;2.53;;;;;;;11.02;60.08;103065.47;5097129;28;20028;-80
2022/03/17 09:09:13;;;;;;;11.27;2.42;;;;;;;11.32;59.71;103067.31;5097107;28;20490;-80
2022/03/17 09:11:39;;;;;;;8.75;2.45;;;;;;;11.79;57.56;103068.97;5097060;28;20028;-80
2022/03/17 09:14:04;;;;;;;9.27;2.35;;;;;;;11.36;57.49;103071.53;5078702;28;20062;-80
2022/03/17 09:16:30;;;;;;;11.38;2.15;;;;;;;11.50;57.72;103075.19;5097161;28;20040;-79
2022/03/17 09:18:56;;;;;;;14.30;2.42;;;;;;;12.23;55.13;103083.25;5096761;28;20106;-80
2022/03/17 09:21:22;;;;;;;7.95;2.05;;;;;;;13.79;52.81;103080.28;5096689;28;20447;-80
2022/03/17 09:23:47;;;;;;;13.88;2.22;;;;;;;13.91;49.68;103079.44;5078353;28;20174;-78
2022/03/17 09:26:14;;;;;;;12.60;2.72;;;;;;;13.66;51.02;103088.28;5097143;28;20119;-80
2022/03/17 09:28:39;;;;;;;13.15;2.40;;;;;;;12.78;51.81;103097.59;5096244;28;20093;-80
2022/03/17 09:31:07;;;;;;;16.95;2.97;;;;;;;12.01;55.05;103104.19;5096666;28;20028;-79
2022/03/17 09:33:32;;;;;;;12.45;3.08;;;;;;;11.69;55.58;103107.81;5096470;28;20415;-80
2022/03/17 09:35:57;;;;;;;18.92;3.13;;;;;;;11.27;57.52;103114.69;5078062;28;20032;-80
2022/03/17 09:38:24;;;;;;;12.55;2.63;;;;;;;10.47;60.14;103121.81;5096123;28;20448;-78
2022/03/17 09:40:49;;;;;;;9.25;2.92;;;;;;;9.78;61.25;103135.06;5096126;28;20032;-77
2022/03/17 09:43:28;;;;;;;11.70;2.85;;;;;;;9.23;62.90;103133.34;5096107;28;20074;-80
2022/03/17 09:45:56;;;;;;;12.15;2.53;;;;;;;9.16;64.66;103143.41;5096679;28;20466;-78
2022/03/17 09:48:24;;;;;;;15.65;2.90;;;;;;;9.73;63.48;103152.19;5096275;28;20082;-79
2022/03/17 09:50:56;;;;;;;14.27;3.05;;;;;;;9.29;63.27;103153.47;5097040;28;20062;-80
2022/03/17 09:53:24;;;;;;;9.60;3.13;;;;;;;9.03;65.51;103163.50;5096662;28;20024;-79
2022/03/17 09:55:50;;;;;;;9.52;3.72;;;;;;;8.85;67.47;103169.69;5096186;28;20024;-80
2022/03/17 09:58:16;;;;;;;14.63;3.00;;;;;;;8.82;67.29;103175.97;5096170;28;20085;-81
2022/03/17 10:00:49;;;;;;;8.63;2.80;;;;;;;9.17;66.40;103169.03;5096083;28;20064;-80
2022/03/17 10:03:22;;;;;;;14.60;3.08;;;;;;;11.02;60.18;103177.38;5097761;28;20028;-79
2022/03/17 10:05:49;;;;;;;12.77;3.78;;;;;;;11.67;58.08;103175.50;5099727;28;20024;-81
2022/03/17 10:08:16;;;;;;;11.48;2.50;;;;;;;12.65;53.83;103176.78;5097177;28;20058;-79
2022/03/17 10:10:43;;;;;;;10.02;2.90;;;;;;;13.37;51.83;103188.22;5096382;28;20037;-79
2022/03/17 10:13:16;;;;;;;11.75;2.70;;;;;;;14.21;48.94;103182.66;5077808;28;20359;-80
2022/03/17 10:15:46;;;;;;;9.60;3.05;;;;;;;13.48;50.05;103190.22;5095729;28;20032;-81
2022/03/17 10:18:24;;;;;;;11.77;2.53;;;;;;;13.48;51.66;103202.72;5077683;28;20122;-81
2022/03/17 10:21:18;;;;;;;11.55;2.97;;;;;;;13.55;51.34;103207.59;5095529;28;20035;-81
2022/03/17 10:23:50;;;;;;;12.30;3.58;;;;;;;13.84;50.17;103215.50;5096073;28;20089;-80
2022/03/17 10:26:34;;;;;;;13.90;3.10;;;;;;;13.38;52.29;103223.88;5096203;28;20047;-81
2022/03/17 10:29:25;;;;;;;6.88;2.60;;;;;;;12.98;50.51;103232.56;5095107;28;20115;-80
2022/03/17 10:32:02;;;;;;;23.50;3.63;;;;;;;12.72;51.66;103231.53;5096272;28;20342;-82
2022/03/17 10:34:32;;;;;;;9.80;2.72;;;;;;;12.10;53.67;103245.06;5095651;28;20032;-79
2022/03/17 10:37:14;;;;;;;11.38;3.03;;;;;;;12.50;53.45;103248.88;5095135;28;20435;-80
2022/03/17 10:39:47;;;;;;;12.95;3.00;;;;;;;12.20;55.08;103251.56;5095072;28;20025;-81
2022/03/17 10:42:18;;;;;;;11.55;3.00;;;;;;;12.63;54.75;103265.03;5095213;28;20032;-81
2022/03/17 10:44:56;;;;;;;12.38;2.40;;;;;;;13.11;52.01;103269.25;5095771;28;20386;-81
2022/03/17 10:47:26;;;;;;;9.00;2.28;;;;;;;13.68;49.31;103271.81;5095131;28;20376;-81
2022/03/17 10:50:03;;;;;;;6.60;2.22;;;;;;;14.74;46.88;103277.22;5094998;28;20377;-81
2022/03/17 10:52:58;;;;;;;9.77;2.45;;;;;;;13.83;49.12;103275.31;5094833;28;20048;-80
2022/03/17 10:55:27;;;;;;;9.98;2.55;;;;;;;13.60;50.46;103267.94;5076779;28;20068;-81
2022/03/17 10:58:14;;;;;;;9.73;2.47;;;;;;;14.07;47.86;103285.34;5094512;28;20078;-79
2022/03/17 11:00:53;;;;;;;6.85;2.70;;;;;;;14.14;47.24;103275.06;5095042;28;20051;-80
2022/03/17 11:03:20;;;;;;;10.45;2.30;;;;;;;14.05;47.47;103282.78;5094800;28;20081;-80
2022/03/17 11:05:49;;;;;;;9.07;2.35;;;;;;;13.99;47.40;103275.16;5094777;28;20457;-81
2022/03/17 11:08:15;;;;;;;7.35;2.42;;;;;;;14.45;46.11;103279.19;5094920;28;20028;-80
2022/03/17 11:10:40;;;;;;;6.43;1.92;;;;;;;14.81;46.48;103283.88;5094502;28;20464;-81
2022/03/17 11:13:09;;;;;;;10.48;2.20;;;;;;;13.81;48.56;103282.59;5094659;28;20024;-80
2022/03/17 11:15:40;;;;;;;6.43;2.20;;;;;;;13.88;48.99;103289.25;5094173;28;20086;-81
2022/03/17 11:18:12;;;;;;;8.25;2.33;;;;;;;14.57;47.46;103282.88;5094821;28;20166;-80
2022/03/17 11:20:38;;;;;;;8.85;2.85;;;;;;;14.85;46.69;103294.38;5094123;28;20039;-80
2022/03/17 11:23:19;;;;;;;9.40;2.55;;;;;;;14.77;45.63;103292.25;5094211;28;20024;-79
2022/03/17 11:25:54;;;;;;;;;;;;;;;13.86;47.55;103295.66;5094764;28;20106;-81
2022/03/17 11:28:30;;;;;;;9.73;2.25;;;;;;;13.51;48.75;103299.69;5093785;28;19968;-80
2022/03/17 11:31:00;;;;;;;6.90;2.05;;;;;;;13.65;48.86;103308.63;5093804;28;20024;-79
2022/03/17 11:33:43;;;;;;;11.23;2.60;;;;;;;13.87;47.47;103306.28;5094302;28;20393;-80
2022/03/17 11:36:08;;;;;;;6.70;2.05;;;;;;;14.46;46.00;103305.03;5076295;28;20032;-79